Time;durP1;ratioP1;P1;durP2;ratioP2;P2;SDS_P1;SDS_P2;PMS_P1;PMS_P2;Temp;Humidity;BMP_temperature;BMP_pressure;BME280_temperature;BME280_humidity;BME280_pressure;Samples;Min_cycle;Max_cycle;Signal;HPM_P1;HPM_P2
2022/04/20 00:00:36;;;;;;;12.70;8.60;;;;;;;;;;4935255;29;20094;-72
2022/04/20 00:03:03;;;;;;;12.18;8.57;;;;;;;;;;4950077;28;20491;-70
2022/04/20 00:05:33;;;;;;;12.05;8.68;;;;;;;;;;4934748;29;20032;-69
2022/04/20 00:08:03;;;;;;;14.02;8.68;;;;;;;;;;4934413;29;20143;-68
2022/04/20 00:10:30;;;;;;;11.82;8.82;;;;;;;;;;4935399;29;20479;-68
2022/04/20 00:12:56;;;;;;;12.05;8.98;;;;;;;;;;4934990;29;20415;-69
2022/04/20 00:15:23;;;;;;;13.13;8.88;;;;;;;;;;4935117;29;20024;-69
2022/04/20 00:17:49;;;;;;;15.05;9.45;;;;;;;;;;4934627;29;20020;-69
2022/04/20 00:20:15;;;;;;;22.83;10.13;;;;;;;;;;4934649;29;20039;-71
2022/04/20 00:22:41;;;;;;;18.35;10.30;;;;;;;;;;4933817;29;20356;-68
2022/04/20 00:25:07;;;;;;;13.85;9.27;;;;;;;;;;4935206;29;20031;-68
2022/04/20 00:27:35;;;;;;;13.07;9.38;;;;;;;;;;4934989;29;20035;-68
2022/04/20 00:30:06;;;;;;;16.20;9.70;;;;;;;;;;4949467;29;20386;-69
2022/04/20 00:32:33;;;;;;;14.05;9.10;;;;;;;;;;4934863;29;20032;-70
2022/04/20 00:34:58;;;;;;;15.02;9.48;;;;;;;;;;4949655;29;20518;-69
2022/04/20 00:37:24;;;;;;;15.00;9.95;;;;;;;;;;4934784;29;20048;-70
2022/04/20 00:39:50;;;;;;;13.27;9.32;;;;;;;;;;4933697;29;20536;-69
2022/04/20 00:42:17;;;;;;;12.27;9.27;;;;;;;;;;4933715;29;20483;-69
2022/04/20 00:44:43;;;;;;;12.75;8.52;;;;;;;;;;4933580;29;20122;-69
2022/04/20 00:47:10;;;;;;;12.30;9.73;;;;;;;;;;4934181;29;20031;-68
2022/04/20 00:49:37;;;;;;;12.63;9.23;;;;;;;;;;4934116;29;20035;-70
2022/04/20 00:52:06;;;;;;;16.63;10.68;;;;;;;;;;4934257;29;20403;-70
2022/04/20 00:54:32;;;;;;;16.23;11.13;;;;;;;;;;4950634;28;20043;-69
2022/04/20 00:56:59;;;;;;;15.43;10.98;;;;;;;;;;4950602;29;20031;-69
2022/04/20 00:59:30;;;;;;;15.13;11.63;;;;;;;;;;4934632;29;20124;-69
2022/04/20 01:01:57;;;;;;;15.15;11.23;;;;;;;;;;4934308;29;20042;-68
2022/04/20 01:04:24;;;;;;;18.65;11.73;;;;;;;;;;4950109;28;20032;-69
2022/04/20 01:07:16;;;;;;;15.63;11.45;;;;;;;;;;4934354;29;20410;-69
2022/04/20 01:10:01;;;;;;;22.15;11.70;;;;;;;;;;4935754;29;20049;-68
2022/04/20 01:12:46;;;;;;;17.25;10.77;;;;;;;;;;4934486;29;20036;-71
2022/04/20 01:15:34;;;;;;;16.95;11.32;;;;;;;;;;4943510;29;20056;-69
2022/04/20 01:18:16;;;;;;;18.27;11.73;;;;;;;;;;4933457;29;20057;-68
2022/04/20 01:20:57;;;;;;;16.08;11.93;;;;;;;;;;4933840;29;20055;-69
2022/04/20 01:23:58;;;;;;;18.95;13.05;;;;;;;;;;4927348;29;20099;-69
2022/04/20 01:26:35;;;;;;;15.77;11.82;;;;;;;;;;4950140;28;20044;-68
2022/04/20 01:29:26;;;;;;;16.52;11.30;;;;;;;;;;4949922;28;20127;-68
2022/04/20 01:32:01;;;;;;;21.30;12.77;;;;;;;;;;4949810;28;20028;-70
2022/04/20 01:35:02;;;;;;;23.63;13.48;;;;;;;;;;4929697;29;20047;-77
2022/04/20 01:37:28;;;;;;;19.50;12.07;;;;;;;;;;4950254;28;20103;-77
2022/04/20 01:39:55;;;;;;;16.13;12.18;;;;;;;;;;4933999;29;20384;-78
2022/04/20 01:42:22;;;;;;;19.67;13.23;;;;;;;;;;4933660;29;20509;-77
2022/04/20 01:44:51;;;;;;;18.77;12.68;;;;;;;;;;4949452;28;20509;-78
2022/04/20 01:47:40;;;;;;;21.00;14.45;;;;;;;;;;4949555;29;20426;-74
2022/04/20 01:50:33;;;;;;;20.83;15.50;;;;;;;;;;4934520;29;20095;-74
2022/04/20 01:53:08;;;;;;;19.70;14.48;;;;;;;;;;4950069;28;20562;-69
2022/04/20 01:56:09;;;;;;;18.20;12.85;;;;;;;;;;4935158;29;20123;-70
2022/04/20 01:58:55;;;;;;;19.00;13.60;;;;;;;;;;4924352;29;20130;-69
2022/04/20 02:04:27;;;;;;;20.75;13.73;;;;;;;;;;4937154;29;20036;-68
2022/04/20 02:06:53;;;;;;;24.98;14.50;;;;;;;;;;4937379;29;20044;-69
2022/04/20 02:09:25;;;;;;;19.95;14.05;;;;;;;;;;4953130;28;20042;-69
2022/04/20 02:12:11;;;;;;;18.65;12.73;;;;;;;;;;4938188;29;20044;-69
2022/04/20 02:15:06;;;;;;;19.83;13.60;;;;;;;;;;4938425;28;20043;-68
2022/04/20 02:18:01;;;;;;;22.38;13.65;;;;;;;;;;4937618;28;20059;-72
2022/04/20 02:20:42;;;;;;;16.92;12.32;;;;;;;;;;4953138;28;20040;-69
2022/04/20 02:23:08;;;;;;;18.92;14.55;;;;;;;;;;4953047;28;20160;-69
2022/04/20 02:25:34;;;;;;;21.55;14.05;;;;;;;;;;4952891;28;20152;-68
2022/04/20 02:28:00;;;;;;;18.02;13.48;;;;;;;;;;4952801;29;20042;-70
2022/04/20 02:30:26;;;;;;;18.05;12.55;;;;;;;;;;4938024;29;20032;-70
2022/04/20 02:32:51;;;;;;;19.67;11.90;;;;;;;;;;4952782;29;20031;-71
2022/04/20 02:35:17;;;;;;;18.80;12.48;;;;;;;;;;4936831;29;20420;-69
2022/04/20 02:37:43;;;;;;;24.08;12.80;;;;;;;;;;4938067;29;20039;-69
2022/04/20 02:40:10;;;;;;;16.05;11.48;;;;;;;;;;4952705;28;20400;-68
2022/04/20 02:42:35;;;;;;;20.23;11.45;;;;;;;;;;4952646;29;20550;-69
2022/04/20 02:45:01;;;;;;;16.40;11.55;;;;;;;;;;4952055;28;20039;-70
2022/04/20 02:47:27;;;;;;;18.92;12.60;;;;;;;;;;4937256;29;20034;-69
2022/04/20 02:49:53;;;;;;;19.00;11.75;;;;;;;;;;4937895;29;20525;-70
2022/04/20 02:52:22;;;;;;;21.08;11.68;;;;;;;;;;4956156;28;20435;-69
2022/04/20 02:54:48;;;;;;;26.58;11.70;;;;;;;;;;4952596;28;20094;-68
2022/04/20 02:57:15;;;;;;;19.90;12.35;;;;;;;;;;4952028;29;20047;-69
2022/04/20 02:59:43;;;;;;;15.00;10.50;;;;;;;;;;4952323;28;20457;-68
2022/04/20 03:02:09;;;;;;;16.10;10.32;;;;;;;;;;4952246;28;20463;-68
2022/04/20 03:04:35;;;;;;;24.95;11.13;;;;;;;;;;4952394;28;20051;-69
2022/04/20 03:07:01;;;;;;;16.88;10.43;;;;;;;;;;4952088;28;20040;-71
2022/04/20 03:09:38;;;;;;;13.23;8.77;;;;;;;;;;4950597;28;20032;-68
2022/04/20 03:12:06;;;;;;;20.55;9.70;;;;;;;;;;4951959;28;20062;-69
2022/04/20 03:14:36;;;;;;;14.05;9.65;;;;;;;;;;4951921;29;20042;-70
2022/04/20 03:17:02;;;;;;;12.93;9.73;;;;;;;;;;4951885;29;20122;-69
2022/04/20 03:19:28;;;;;;;13.05;9.48;;;;;;;;;;4937362;28;20047;-69
2022/04/20 03:21:55;;;;;;;11.35;8.68;;;;;;;;;;4952091;28;20545;-69
2022/04/20 03:24:25;;;;;;;13.02;9.13;;;;;;;;;;4935794;29;20051;-69
2022/04/20 03:27:11;;;;;;;17.73;8.95;;;;;;;;;;4935899;28;20086;-71
2022/04/20 03:29:48;;;;;;;17.50;9.45;;;;;;;;;;4944817;29;20436;-73
2022/04/20 03:32:15;;;;;;;16.92;9.23;;;;;;;;;;4936894;29;20035;-72
2022/04/20 03:34:42;;;;;;;14.65;8.10;;;;;;;;;;4951808;28;20031;-72
2022/04/20 03:37:12;;;;;;;16.85;8.75;;;;;;;;;;4951701;29;20077;-78
2022/04/20 03:39:40;;;;;;;20.75;10.57;;;;;;;;;;4936626;29;20036;-73
2022/04/20 03:42:06;;;;;;;16.40;8.93;;;;;;;;;;4936346;29;20063;-74
2022/04/20 03:44:35;;;;;;;11.48;8.48;;;;;;;;;;4950925;28;20372;-74
2022/04/20 03:47:01;;;;;;;15.43;9.25;;;;;;;;;;4936600;29;20098;-74
2022/04/20 03:49:27;;;;;;;16.85;9.32;;;;;;;;;;4936561;29;20391;-77
2022/04/20 03:51:52;;;;;;;19.52;8.70;;;;;;;;;;4951239;28;20106;-78
2022/04/20 03:54:27;;;;;;;21.65;7.97;;;;;;;;;;4951059;29;20028;-77
2022/04/20 03:57:05;;;;;;;15.73;7.57;;;;;;;;;;4950945;29;20479;-77
2022/04/20 03:59:38;;;;;;;16.60;8.55;;;;;;;;;;4950990;29;20122;-76
2022/04/20 04:02:05;;;;;;;18.05;10.00;;;;;;;;;;4950948;29;20032;-78
2022/04/20 04:04:36;;;;;;;18.00;8.90;;;;;;;;;;4935980;28;20028;-77
2022/04/20 04:07:11;;;;;;;18.92;9.00;;;;;;;;;;4950512;29;20039;-78
2022/04/20 04:09:38;;;;;;;19.40;9.15;;;;;;;;;;4935595;29;20039;-75
2022/04/20 04:12:09;;;;;;;15.43;8.18;;;;;;;;;;4934788;29;20037;-75
2022/04/20 04:14:44;;;;;;;18.63;7.70;;;;;;;;;;4950183;29;20036;-75
2022/04/20 04:17:10;;;;;;;14.05;6.88;;;;;;;;;;4950446;29;20035;-72
2022/04/20 04:19:37;;;;;;;11.43;6.82;;;;;;;;;;4932968;29;20062;-76
2022/04/20 04:22:05;;;;;;;13.18;6.22;;;;;;;;;;4932344;29;20562;-73
2022/04/20 04:24:34;;;;;;;11.32;6.70;;;;;;;;;;4948697;28;20059;-72
2022/04/20 04:27:05;;;;;;;15.48;6.57;;;;;;;;;;4948335;29;20063;-74
2022/04/20 04:29:34;;;;;;;14.63;7.15;;;;;;;;;;4948879;29;20111;-77
2022/04/20 04:32:00;;;;;;;11.95;5.97;;;;;;;;;;4947701;28;20078;-77
2022/04/20 04:34:27;;;;;;;10.32;6.68;;;;;;;;;;4945369;28;20046;-80
2022/04/20 04:36:56;;;;;;;10.52;6.55;;;;;;;;;;4934011;29;20511;-79
2022/04/20 04:39:24;;;;;;;15.90;8.20;;;;;;;;;;4949839;29;20051;-78
2022/04/20 04:41:52;;;;;;;15.65;8.25;;;;;;;;;;4934390;29;20040;-81
2022/04/20 04:44:19;;;;;;;12.45;7.18;;;;;;;;;;4949980;29;20501;-76
2022/04/20 04:49:39;;;;;;;16.15;6.65;;;;;;;;;;4954475;28;20449;-80
2022/04/20 04:52:11;;;;;;;15.82;6.43;;;;;;;;;;4940821;29;20486;-78
2022/04/20 04:54:43;;;;;;;13.20;7.78;;;;;;;;;;4952476;29;20052;-77
2022/04/20 04:57:12;;;;;;;14.68;7.25;;;;;;;;;;4934334;29;20056;-78
2022/04/20 04:59:41;;;;;;;15.40;7.25;;;;;;;;;;4949969;29;20027;-75
2022/04/20 05:02:09;;;;;;;18.90;7.93;;;;;;;;;;4933641;29;20043;-70
2022/04/20 05:04:36;;;;;;;12.35;6.95;;;;;;;;;;4949928;28;20026;-77
2022/04/20 05:07:04;;;;;;;11.55;6.78;;;;;;;;;;4933329;29;20039;-74
2022/04/20 05:09:38;;;;;;;11.07;6.20;;;;;;;;;;4946147;29;20034;-73
2022/04/20 05:12:07;;;;;;;10.65;6.05;;;;;;;;;;4932693;29;20079;-72
2022/04/20 05:14:37;;;;;;;8.73;6.03;;;;;;;;;;4932887;29;20028;-73
2022/04/20 05:17:03;;;;;;;10.43;6.30;;;;;;;;;;4948230;29;20079;-72
2022/04/20 05:19:29;;;;;;;9.73;6.13;;;;;;;;;;4933657;29;20056;-73
2022/04/20 05:22:01;;;;;;;10.32;5.80;;;;;;;;;;4948063;28;20028;-73
2022/04/20 05:24:38;;;;;;;9.75;5.80;;;;;;;;;;4931105;29;20040;-73
2022/04/20 05:27:08;;;;;;;11.05;5.93;;;;;;;;;;4948522;28;20039;-72
2022/04/20 05:29:48;;;;;;;11.75;6.00;;;;;;;;;;4948577;29;20094;-73
2022/04/20 05:32:14;;;;;;;10.50;5.75;;;;;;;;;;4948618;28;20407;-72
2022/04/20 05:34:41;;;;;;;12.35;5.85;;;;;;;;;;4950386;28;20032;-72
2022/04/20 05:42:42;;;;;;;11.57;5.45;;;;;;;;;;4936702;29;20046;-74
2022/04/20 05:45:09;;;;;;;14.57;5.78;;;;;;;;;;4952341;28;20094;-73
2022/04/20 05:47:38;;;;;;;8.00;4.65;;;;;;;;;;4952335;28;20035;-73
2022/04/20 05:50:05;;;;;;;13.50;5.68;;;;;;;;;;4952280;29;20040;-73
2022/04/20 05:52:31;;;;;;;13.23;5.45;;;;;;;;;;4952525;29;20399;-72
2022/04/20 05:54:58;;;;;;;8.15;5.30;;;;;;;;;;4952430;28;20040;-74
2022/04/20 05:57:24;;;;;;;10.93;5.65;;;;;;;;;;4937246;29;20082;-73
2022/04/20 05:59:51;;;;;;;10.27;5.75;;;;;;;;;;4952378;29;20043;-73
2022/04/20 06:02:17;;;;;;;14.95;5.60;;;;;;;;;;4952061;28;20032;-73
2022/04/20 06:04:43;;;;;;;11.55;6.18;;;;;;;;;;4952124;28;20047;-74
2022/04/20 06:07:33;;;;;;;8.05;6.63;;;;;;;;;;4936222;29;20523;-75
2022/04/20 06:10:17;;;;;;;13.85;7.55;;;;;;;;;;4937301;29;20099;-73
2022/04/20 06:12:52;;;;;;;11.48;6.50;;;;;;;;;;4932871;29;20032;-78
2022/04/20 06:15:36;;;;;;;11.20;7.22;;;;;;;;;;4936913;29;20495;-74
2022/04/20 06:18:08;;;;;;;10.38;6.70;;;;;;;;;;4936457;29;20044;-80
2022/04/20 06:20:36;;;;;;;10.77;6.63;;;;;;;;;;4934542;29;20039;-77
2022/04/20 06:23:22;;;;;;;21.70;8.80;;;;;;;;;;4950994;28;20092;-76
2022/04/20 06:26:07;;;;;;;13.18;7.82;;;;;;;;;;4936478;29;20063;-79
2022/04/20 06:28:54;;;;;;;10.13;7.05;;;;;;;;;;4950813;28;20076;-75
2022/04/20 06:31:31;;;;;;;11.57;7.40;;;;;;;;;;4950605;28;20509;-73
2022/04/20 06:34:29;;;;;;;11.63;5.93;;;;;;;;;;4934775;29;20056;-75
2022/04/20 06:37:14;;;;;;;11.73;8.02;;;;;;;;;;4950200;28;20101;-72
2022/04/20 06:39:59;;;;;;;11.40;8.50;;;;;;;;;;4936706;29;20086;-74
2022/04/20 06:42:43;;;;;;;18.60;8.43;;;;;;;;;;4938192;29;20098;-71
2022/04/20 06:45:28;;;;;;;16.08;9.75;;;;;;;;;;4935110;29;20131;-73
2022/04/20 06:48:17;;;;;;;15.35;8.82;;;;;;;;;;4934841;29;20052;-71
2022/04/20 06:51:06;;;;;;;15.93;10.02;;;;;;;;;;4935257;29;20593;-71
2022/04/20 06:59:09;;;;;;;11.80;8.35;;;;;;;;;;4940845;29;20046;-76
2022/04/20 07:02:08;;;;;;;13.18;8.05;;;;;;;;;;4934568;29;20074;-72
2022/04/20 07:04:52;;;;;;;14.90;8.07;;;;;;;;;;4950345;29;20031;-72
2022/04/20 07:07:37;;;;;;;10.27;8.02;;;;;;;;;;4936939;29;20113;-72
2022/04/20 07:10:10;;;;;;;11.23;7.63;;;;;;;;;;4950250;29;20046;-72
2022/04/20 07:12:51;;;;;;;14.18;8.13;;;;;;;;;;4949768;28;20119;-72
2022/04/20 07:15:18;;;;;;;14.07;6.95;;;;;;;;;;4933724;29;20039;-73
2022/04/20 07:17:44;;;;;;;12.43;6.47;;;;;;;;;;4950281;28;20031;-79
2022/04/20 07:20:33;;;;;;;15.75;6.93;;;;;;;;;;4934425;29;20117;-75
2022/04/20 07:23:02;;;;;;;10.80;6.28;;;;;;;;;;4934501;29;20119;-76
2022/04/20 07:25:32;;;;;;;13.05;6.03;;;;;;;;;;4945886;29;20047;-74
2022/04/20 07:28:31;;;;;;;10.35;7.35;;;;;;;;;;4944267;28;20043;-74
2022/04/20 07:31:35;;;;;;;11.50;7.00;;;;;;;;;;4934563;29;20055;-77
2022/04/20 07:34:19;;;;;;;;;;;;;;;;;;4935494;29;20036;-72
2022/04/20 07:37:08;;;;;;;11.82;6.85;;;;;;;;;;4942444;29;19922;-71
2022/04/20 07:40:01;;;;;;;9.20;7.07;;;;;;;;;;4926841;29;20103;-75
2022/04/20 07:42:54;;;;;;;13.00;6.53;;;;;;;;;;4933362;29;20039;-71
2022/04/20 07:45:29;;;;;;;11.90;7.18;;;;;;;;;;4935965;29;20043;-73
2022/04/20 07:48:18;;;;;;;7.63;6.53;;;;;;;;;;4934208;29;20315;-74
2022/04/20 07:50:53;;;;;;;12.27;6.97;;;;;;;;;;4934837;29;20055;-73
2022/04/20 07:53:51;;;;;;;13.00;7.43;;;;;;;;;;4933522;29;20102;-69
2022/04/20 07:56:20;;;;;;;10.77;6.63;;;;;;;;;;4934848;29;20484;-73
2022/04/20 07:58:54;;;;;;;12.73;7.18;;;;;;;;;;4948741;28;20028;-75
2022/04/20 08:01:26;;;;;;;11.13;6.45;;;;;;;;;;4934673;29;20079;-76
2022/04/20 08:03:52;;;;;;;9.75;6.20;;;;;;;;;;4934818;29;20070;-73
2022/04/20 08:06:20;;;;;;;14.05;6.90;;;;;;;;;;4933547;29;20028;-74
2022/04/20 08:08:47;;;;;;;11.00;6.75;;;;;;;;;;4948843;28;20063;-78
2022/04/20 08:11:14;;;;;;;9.77;6.20;;;;;;;;;;4949471;28;20031;-76
2022/04/20 08:16:52;;;;;;;11.68;5.40;;;;;;;;;;4933731;29;20155;-74
2022/04/20 08:19:40;;;;;;;7.68;5.47;;;;;;;;;;4933563;29;20114;-74
2022/04/20 08:22:14;;;;;;;7.85;5.35;;;;;;;;;;4932580;29;20042;-76
2022/04/20 08:24:43;;;;;;;7.15;5.25;;;;;;;;;;4934032;29;20043;-78
2022/04/20 08:27:10;;;;;;;8.80;6.03;;;;;;;;;;4934238;29;20106;-73
2022/04/20 08:29:36;;;;;;;10.80;6.38;;;;;;;;;;4934213;29;20115;-73
2022/04/20 08:32:01;;;;;;;10.07;5.85;;;;;;;;;;4934448;29;20106;-74
2022/04/20 08:34:27;;;;;;;7.55;5.03;;;;;;;;;;4934549;29;20936;-76
2022/04/20 08:36:53;;;;;;;11.77;5.45;;;;;;;;;;4934302;29;20047;-74
2022/04/20 08:39:19;;;;;;;12.55;5.95;;;;;;;;;;4934332;29;20039;-72
2022/04/20 08:41:51;;;;;;;7.07;5.28;;;;;;;;;;4933436;29;20026;-78
2022/04/20 08:44:27;;;;;;;11.60;5.22;;;;;;;;;;4934294;29;20036;-74
2022/04/20 08:47:01;;;;;;;5.38;4.50;;;;;;;;;;4934134;29;20443;-73
2022/04/20 08:49:27;;;;;;;7.80;4.22;;;;;;;;;;4948803;29;20039;-73
2022/04/20 08:54:39;;;;;;;12.05;5.95;;;;;;;;;;4934091;29;20071;-73
2022/04/20 08:57:17;;;;;;;6.55;4.25;;;;;;;;;;4934253;29;20050;-72
2022/04/20 08:59:47;;;;;;;8.35;4.07;;;;;;;;;;4934159;29;20491;-73
2022/04/20 09:02:13;;;;;;;6.38;3.40;;;;;;;;;;4933536;29;20023;-73
2022/04/20 09:04:39;;;;;;;7.55;4.68;;;;;;;;;;4933725;29;20487;-79
2022/04/20 09:07:07;;;;;;;5.38;4.22;;;;;;;;;;4933860;29;20027;-77
2022/04/20 09:09:33;;;;;;;7.07;4.20;;;;;;;;;;4938021;29;20048;-78
2022/04/20 09:11:59;;;;;;;7.22;4.25;;;;;;;;;;4940310;29;20024;-76
2022/04/20 09:14:29;;;;;;;5.03;3.35;;;;;;;;;;4940350;29;20090;-74
2022/04/20 09:16:55;;;;;;;6.00;3.35;;;;;;;;;;4940503;29;20028;-74
2022/04/20 09:19:25;;;;;;;7.65;3.60;;;;;;;;;;4939032;29;20032;-73
2022/04/20 09:21:57;;;;;;;4.00;2.83;;;;;;;;;;4939871;29;20050;-74
2022/04/20 09:24:23;;;;;;;7.65;4.05;;;;;;;;;;4939750;29;20035;-74
2022/04/20 09:26:54;;;;;;;6.60;3.17;;;;;;;;;;4940069;29;20348;-74
2022/04/20 09:29:21;;;;;;;5.15;2.83;;;;;;;;;;4939783;29;20040;-72
2022/04/20 09:31:51;;;;;;;5.65;2.75;;;;;;;;;;4939605;29;20074;-73
2022/04/20 09:34:29;;;;;;;6.05;2.88;;;;;;;;;;4939780;29;20431;-78
2022/04/20 09:36:57;;;;;;;4.10;2.83;;;;;;;;;;4940123;29;20042;-79
2022/04/20 09:39:25;;;;;;;5.32;3.03;;;;;;;;;;4940222;29;20072;-78
2022/04/20 09:42:02;;;;;;;3.53;2.60;;;;;;;;;;4940224;29;20028;-74
2022/04/20 09:44:30;;;;;;;4.38;2.40;;;;;;;;;;4938285;29;20506;-77
2022/04/20 09:50:02;;;;;;;4.82;2.60;;;;;;;;;;4939736;29;20071;-79
2022/04/20 09:52:44;;;;;;;4.22;2.40;;;;;;;;;;4939683;29;20035;-74
2022/04/20 09:55:13;;;;;;;4.60;2.40;;;;;;;;;;4939896;29;20083;-77
2022/04/20 09:57:39;;;;;;;4.30;2.47;;;;;;;;;;4939816;29;20024;-73
2022/04/20 10:00:14;;;;;;;7.20;3.22;;;;;;;;;;4939586;29;20115;-76
2022/04/20 10:02:51;;;;;;;4.43;2.47;;;;;;;;;;4939719;29;20039;-76
2022/04/20 10:05:19;;;;;;;5.10;2.67;;;;;;;;;;4939726;29;20048;-76
2022/04/20 10:07:45;;;;;;;6.75;3.05;;;;;;;;;;4939651;29;20082;-76
2022/04/20 10:10:11;;;;;;;5.07;2.72;;;;;;;;;;4939999;29;20040;-77
2022/04/20 10:12:40;;;;;;;11.38;3.38;;;;;;;;;;4954609;28;20028;-74
2022/04/20 10:17:56;;;;;;;11.70;3.42;;;;;;;;;;4939723;29;20597;-74
2022/04/20 10:20:25;;;;;;;6.18;2.60;;;;;;;;;;4937586;29;20039;-76
2022/04/20 10:22:51;;;;;;;3.95;2.03;;;;;;;;;;4937726;29;20051;-76
2022/04/20 10:25:18;;;;;;;5.57;2.58;;;;;;;;;;4938042;29;20075;-75
2022/04/20 10:27:46;;;;;;;6.40;2.85;;;;;;;;;;4936358;29;20050;-72
2022/04/20 10:30:18;;;;;;;3.95;2.40;;;;;;;;;;4937124;29;20091;-75
2022/04/20 10:32:53;;;;;;;4.57;2.58;;;;;;;;;;4936298;29;20043;-74
2022/04/20 10:35:23;;;;;;;6.03;2.47;;;;;;;;;;4934712;29;20067;-76
2022/04/20 10:38:12;;;;;;;5.03;2.70;;;;;;;;;;4934964;29;20431;-78
2022/04/20 10:41:07;;;;;;;4.03;2.35;;;;;;;;;;4935651;29;20390;-74
2022/04/20 10:43:35;;;;;;;4.07;2.20;;;;;;;;;;4936044;29;20043;-75
2022/04/20 10:46:04;;;;;;;4.53;2.20;;;;;;;;;;4935207;29;20462;-73
2022/04/20 10:48:49;;;;;;;2.35;1.60;;;;;;;;;;4936624;29;20036;-74
2022/04/20 10:51:19;;;;;;;3.50;2.05;;;;;;;;;;4936442;29;20574;-75
2022/04/20 10:53:48;;;;;;;2.80;1.90;;;;;;;;;;4954047;29;20035;-75
2022/04/20 10:56:17;;;;;;;6.30;2.33;;;;;;;;;;4954133;29;20086;-78
2022/04/20 10:59:04;;;;;;;7.45;2.42;;;;;;;;;;4955414;28;20061;-73
2022/04/20 11:01:30;;;;;;;4.18;1.90;;;;;;;;;;4955223;28;20039;-74
2022/04/20 11:04:02;;;;;;;5.72;2.25;;;;;;;;;;4955099;29;20031;-73
2022/04/20 11:06:49;;;;;;;5.82;2.30;;;;;;;;;;4955310;29;20047;-75
2022/04/20 11:09:42;;;;;;;2.97;1.70;;;;;;;;;;4955317;28;20122;-75
2022/04/20 11:18:39;;;;;;;7.70;2.70;;;;;;;;;;4956453;28;20602;-78
2022/04/20 11:21:27;;;;;;;3.95;2.00;;;;;;;;;;4956011;29;20057;-78
2022/04/20 11:24:07;;;;;;;4.32;2.38;;;;;;;;;;4955025;28;20043;-76
2022/04/20 11:26:41;;;;;;;6.35;2.42;;;;;;;;;;4954852;28;20496;-77
2022/04/20 11:29:11;;;;;;;5.22;1.95;;;;;;;;;;4935178;29;20064;-78
2022/04/20 11:31:40;;;;;;;4.63;2.13;;;;;;;;;;4925790;29;20036;-78
2022/04/20 11:34:06;;;;;;;6.55;1.90;;;;;;;;;;4932550;29;20028;-76
2022/04/20 11:36:33;;;;;;;5.00;1.80;;;;;;;;;;4936788;29;20030;-78
2022/04/20 11:39:00;;;;;;;4.65;2.47;;;;;;;;;;4931849;29;20031;-77
2022/04/20 11:41:27;;;;;;;9.20;2.25;;;;;;;;;;4933735;29;20035;-76
2022/04/20 11:43:53;;;;;;;10.63;3.42;;;;;;;;;;4933649;29;20026;-76
2022/04/20 11:46:20;;;;;;;6.55;2.20;;;;;;;;;;4935158;29;20035;-73
2022/04/20 11:48:56;;;;;;;8.40;2.00;;;;;;;;;;4933190;29;20087;-76
2022/04/20 11:51:34;;;;;;;8.30;2.20;;;;;;;;;;4948859;28;20051;-76
2022/04/20 11:54:00;;;;;;;8.35;2.28;;;;;;;;;;4934913;29;20487;-74
2022/04/20 11:56:48;;;;;;;16.42;3.20;;;;;;;;;;4933513;29;20067;-73
2022/04/20 11:59:18;;;;;;;6.35;2.03;;;;;;;;;;4934574;29;20355;-73
2022/04/20 12:01:44;;;;;;;5.32;2.35;;;;;;;;;;4934340;29;20102;-74
2022/04/20 12:04:15;;;;;;;6.80;2.28;;;;;;;;;;4934058;29;20131;-77
2022/04/20 12:07:00;;;;;;;5.78;1.85;;;;;;;;;;4933878;29;20534;-74
2022/04/20 12:09:36;;;;;;;9.15;2.90;;;;;;;;;;4934184;29;20458;-73
2022/04/20 12:12:07;;;;;;;4.43;1.98;;;;;;;;;;4953790;28;20047;-79
2022/04/20 12:14:35;;;;;;;4.38;2.20;;;;;;;;;;4953707;28;20046;-75
2022/04/20 12:17:06;;;;;;;3.17;1.77;;;;;;;;;;4947753;28;20398;-73
2022/04/20 12:19:36;;;;;;;5.72;1.85;;;;;;;;;;4949282;28;20040;-73
2022/04/20 12:22:10;;;;;;;5.68;2.00;;;;;;;;;;4933490;29;20131;-73
2022/04/20 12:24:38;;;;;;;4.60;2.05;;;;;;;;;;4935087;29;20122;-76
2022/04/20 12:27:21;;;;;;;6.95;2.40;;;;;;;;;;4933607;29;20036;-72
2022/04/20 12:29:57;;;;;;;5.95;2.00;;;;;;;;;;4932926;29;20042;-76
2022/04/20 12:32:32;;;;;;;3.75;1.90;;;;;;;;;;4934045;29;20271;-72
2022/04/20 12:35:01;;;;;;;6.47;2.72;;;;;;;;;;4934071;29;20509;-74
2022/04/20 12:37:29;;;;;;;4.53;2.00;;;;;;;;;;4934024;29;20046;-73
2022/04/20 12:40:17;;;;;;;7.30;2.05;;;;;;;;;;4932875;29;20462;-77
2022/04/20 12:43:05;;;;;;;8.27;2.60;;;;;;;;;;4934371;29;20036;-74
2022/04/20 12:45:33;;;;;;;6.30;2.10;;;;;;;;;;4930653;29;20410;-74
2022/04/20 12:48:07;;;;;;;5.05;1.83;;;;;;;;;;4934457;29;20110;-72
2022/04/20 12:50:40;;;;;;;7.50;2.55;;;;;;;;;;4933416;29;20119;-77
2022/04/20 12:53:06;;;;;;;5.72;1.90;;;;;;;;;;4934345;29;20086;-73
2022/04/20 13:04:09;;;;;;;4.05;2.22;;;;;;;;;;4933900;29;20048;-75
2022/04/20 13:06:35;;;;;;;5.97;2.42;;;;;;;;;;4933857;29;20081;-75
2022/04/20 13:09:01;;;;;;;3.65;1.75;;;;;;;;;;4934195;29;20046;-75
2022/04/20 13:11:27;;;;;;;4.30;2.08;;;;;;;;;;4934475;29;20351;-79
2022/04/20 13:13:56;;;;;;;3.95;1.70;;;;;;;;;;4933177;29;20431;-76
2022/04/20 13:16:22;;;;;;;5.53;2.35;;;;;;;;;;4934579;28;20024;-76
2022/04/20 13:18:48;;;;;;;5.18;2.00;;;;;;;;;;4932081;29;20036;-74
2022/04/20 13:21:14;;;;;;;4.13;1.92;;;;;;;;;;4934742;29;20419;-77
2022/04/20 13:23:40;;;;;;;3.50;1.90;;;;;;;;;;4934782;29;20024;-74
2022/04/20 13:28:50;;;;;;;3.65;2.10;;;;;;;;;;4934980;29;20377;-77
2022/04/20 13:31:16;;;;;;;4.95;2.35;;;;;;;;;;4937947;29;20024;-73
2022/04/20 13:33:42;;;;;;;3.20;1.60;;;;;;;;;;4934863;29;20044;-74
2022/04/20 13:36:09;;;;;;;3.95;1.70;;;;;;;;;;4934539;29;20038;-76
2022/04/20 13:38:35;;;;;;;4.60;2.10;;;;;;;;;;4934875;29;20387;-76
2022/04/20 13:41:01;;;;;;;3.42;2.10;;;;;;;;;;4934909;29;20383;-75
2022/04/20 13:43:27;;;;;;;7.53;2.63;;;;;;;;;;4934795;29;20074;-78
2022/04/20 13:45:53;;;;;;;4.78;2.22;;;;;;;;;;4934818;29;20083;-75
2022/04/20 13:48:19;;;;;;;4.45;2.10;;;;;;;;;;4934608;29;20036;-77
2022/04/20 13:50:46;;;;;;;8.60;2.22;;;;;;;;;;4934094;29;20052;-78
2022/04/20 13:53:12;;;;;;;7.30;2.10;;;;;;;;;;4934351;29;20464;-78
2022/04/20 13:55:38;;;;;;;5.30;3.08;;;;;;;;;;4949944;28;20110;-76
2022/04/20 13:58:04;;;;;;;6.47;2.22;;;;;;;;;;4938430;29;20464;-79
2022/04/20 14:00:31;;;;;;;5.20;2.15;;;;;;;;;;4938476;29;20032;-76
2022/04/20 14:02:57;;;;;;;4.72;2.70;;;;;;;;;;4938003;29;20032;-77
2022/04/20 14:05:24;;;;;;;5.40;2.72;;;;;;;;;;4938273;29;20506;-73
2022/04/20 14:07:50;;;;;;;6.72;2.15;;;;;;;;;;4937923;29;20483;-73
2022/04/20 14:10:16;;;;;;;4.55;2.28;;;;;;;;;;4938695;29;20114;-72
2022/04/20 14:12:42;;;;;;;7.68;2.47;;;;;;;;;;4938434;29;20040;-73
2022/04/20 14:15:09;;;;;;;4.32;1.95;;;;;;;;;;4938127;29;20032;-70
2022/04/20 14:17:36;;;;;;;7.35;2.67;;;;;;;;;;4937394;29;20050;-74
2022/04/20 14:20:04;;;;;;;7.05;2.40;;;;;;;;;;4938185;29;20020;-74
2022/04/20 14:22:30;;;;;;;6.00;2.20;;;;;;;;;;4938480;29;20035;-74
2022/04/20 14:33:10;;;;;;;6.57;2.55;;;;;;;;;;4929328;29;20090;-74
2022/04/20 14:35:36;;;;;;;6.55;2.80;;;;;;;;;;4938020;29;20027;-75
2022/04/20 14:38:02;;;;;;;7.55;2.60;;;;;;;;;;4937806;28;20043;-73
2022/04/20 14:40:28;;;;;;;7.13;2.70;;;;;;;;;;4937621;29;20075;-72
2022/04/20 14:42:54;;;;;;;4.60;2.40;;;;;;;;;;4937299;29;20386;-73
2022/04/20 14:45:23;;;;;;;5.60;2.67;;;;;;;;;;4935075;29;20024;-73
2022/04/20 14:47:50;;;;;;;9.23;2.50;;;;;;;;;;4927300;29;20472;-74
2022/04/20 14:50:16;;;;;;;6.30;2.63;;;;;;;;;;4919028;29;20020;-73
2022/04/20 14:52:43;;;;;;;5.32;2.63;;;;;;;;;;4918623;29;20074;-76
2022/04/20 14:55:10;;;;;;;6.60;2.33;;;;;;;;;;4933045;29;20051;-73
2022/04/20 14:57:36;;;;;;;4.93;2.60;;;;;;;;;;4919302;29;20032;-74
2022/04/20 15:00:03;;;;;;;5.43;2.25;;;;;;;;;;4918521;29;20044;-75
2022/04/20 15:02:30;;;;;;;4.40;2.30;;;;;;;;;;4918854;29;20112;-73
2022/04/20 15:04:56;;;;;;;5.35;2.10;;;;;;;;;;4936086;29;20032;-73
2022/04/20 15:07:22;;;;;;;4.07;1.80;;;;;;;;;;4936666;29;20364;-74
2022/04/20 15:09:48;;;;;;;3.35;1.73;;;;;;;;;;4936949;29;20085;-72
2022/04/20 15:12:13;;;;;;;2.95;1.50;;;;;;;;;;4937380;29;20554;-75
2022/04/20 15:14:39;;;;;;;4.35;1.88;;;;;;;;;;4936958;29;20095;-75
2022/04/20 15:17:05;;;;;;;3.83;1.85;;;;;;;;;;4937168;29;20043;-75
2022/04/20 15:19:31;;;;;;;4.70;1.65;;;;;;;;;;4936954;29;20027;-75
2022/04/20 15:21:58;;;;;;;5.85;1.80;;;;;;;;;;4935332;29;20435;-71
2022/04/20 15:24:24;;;;;;;4.95;2.00;;;;;;;;;;4937125;29;20055;-75
2022/04/20 15:26:49;;;;;;;4.32;1.98;;;;;;;;;;4937201;29;20066;-74
2022/04/20 15:29:15;;;;;;;4.32;1.88;;;;;;;;;;4935963;29;20055;-75
2022/04/20 15:31:41;;;;;;;5.40;1.92;;;;;;;;;;4936709;29;20451;-78
2022/04/20 15:34:07;;;;;;;5.90;1.83;;;;;;;;;;4934798;29;20028;-75
2022/04/20 15:36:36;;;;;;;5.28;1.92;;;;;;;;;;4929918;29;20028;-72
2022/04/20 15:39:06;;;;;;;5.18;1.80;;;;;;;;;;4936439;29;20030;-76
2022/04/20 15:41:33;;;;;;;4.57;1.90;;;;;;;;;;4934523;29;20139;-73
2022/04/20 15:43:58;;;;;;;3.90;2.03;;;;;;;;;;4934246;29;20038;-75
2022/04/20 15:46:24;;;;;;;6.25;2.25;;;;;;;;;;4934079;29;20035;-73
2022/04/20 15:48:53;;;;;;;4.90;2.17;;;;;;;;;;4930877;29;20059;-76
2022/04/20 15:51:19;;;;;;;6.68;2.40;;;;;;;;;;4947919;28;20389;-74
2022/04/20 15:53:44;;;;;;;3.83;1.80;;;;;;;;;;4933640;29;20099;-74